createdAt,value
2022-10-29T00:01:01.525Z,16.23
2022-10-29T00:03:03.043Z,16.20
2022-10-29T00:05:04.833Z,16.17
2022-10-29T00:07:06.528Z,16.17
2022-10-29T00:09:08.011Z,16.17
2022-10-29T00:11:13.199Z,16.15
2022-10-29T00:13:14.992Z,16.15
2022-10-29T00:15:16.935Z,16.14
2022-10-29T00:17:18.362Z,16.11
2022-10-29T00:19:20.206Z,16.10
2022-10-29T00:21:24.633Z,16.10
2022-10-29T00:23:32.227Z,16.08
2022-10-29T00:25:33.715Z,16.09
2022-10-29T00:27:35.154Z,16.10
2022-10-29T00:29:36.589Z,16.12
2022-10-29T00:31:38.099Z,16.11
2022-10-29T00:33:39.904Z,16.10
2022-10-29T00:35:41.341Z,16.09
2022-10-29T00:37:42.810Z,16.06
2022-10-29T00:39:44.232Z,16.05
2022-10-29T00:41:45.707Z,16.04
2022-10-29T00:43:52.174Z,16.02
2022-10-29T00:46:01.387Z,15.99
2022-10-29T00:48:02.939Z,15.98
2022-10-29T00:50:11.279Z,15.94
2022-10-29T00:52:14.775Z,15.93
2022-10-29T00:54:16.926Z,15.93
2022-10-29T00:56:18.651Z,15.96
2022-10-29T00:58:21.733Z,15.99
2022-10-29T01:00:23.294Z,15.99
2022-10-29T01:02:25.894Z,15.98
2022-10-29T01:04:27.740Z,15.99
2022-10-29T01:06:30.956Z,15.98
2022-10-29T01:08:32.463Z,15.94
2022-10-29T01:11:00.038Z,15.95
2022-10-29T01:13:30.633Z,15.91
2022-10-29T01:16:13.662Z,15.91
2022-10-29T01:18:29.534Z,15.92
2022-10-29T01:20:49.299Z,15.93
2022-10-29T01:22:59.043Z,15.94
2022-10-29T01:25:36.014Z,15.90
2022-10-29T01:28:16.173Z,15.91
2022-10-29T01:30:50.301Z,15.87
2022-10-29T01:33:06.595Z,15.86
2022-10-29T01:35:17.893Z,15.85
2022-10-29T01:37:50.190Z,15.82
2022-10-29T01:40:05.707Z,15.83
2022-10-29T01:42:16.998Z,15.83
2022-10-29T01:44:29.218Z,15.79
2022-10-29T01:46:42.809Z,15.78
2022-10-29T01:48:48.324Z,15.75
2022-10-29T01:50:54.709Z,15.73
2022-10-29T01:52:57.620Z,15.68
2022-10-29T01:54:59.174Z,15.67
2022-10-29T01:57:01.043Z,15.64
2022-10-29T01:59:06.898Z,15.62
2022-10-29T02:01:14.384Z,15.58
2022-10-29T02:03:41.859Z,15.57
2022-10-29T02:06:05.814Z,15.50
2022-10-29T02:08:25.150Z,15.45
2022-10-29T02:10:33.913Z,15.43
2022-10-29T02:12:48.696Z,15.36
2022-10-29T02:15:00.412Z,15.33
2022-10-29T02:17:02.480Z,15.30
2022-10-29T02:19:05.724Z,15.27
2022-10-29T02:21:07.212Z,15.23
2022-10-29T02:23:09.253Z,15.19
2022-10-29T02:25:11.398Z,15.15
2022-10-29T02:27:12.923Z,15.07
2022-10-29T02:29:14.391Z,15.02
2022-10-29T02:31:15.902Z,14.96
2022-10-29T02:33:17.350Z,14.90
2022-10-29T02:35:18.818Z,14.84
2022-10-29T02:37:20.261Z,14.77
2022-10-29T02:39:21.785Z,14.72
2022-10-29T02:41:23.215Z,14.70
2022-10-29T02:43:24.647Z,14.68
2022-10-29T02:45:26.106Z,14.64
2022-10-29T02:47:28.129Z,14.62
2022-10-29T02:49:29.715Z,14.61
2022-10-29T02:51:31.167Z,14.59
2022-10-29T02:53:32.610Z,14.57
2022-10-29T02:55:34.058Z,14.56
2022-10-29T02:57:35.492Z,14.53
2022-10-29T02:59:36.963Z,14.52
2022-10-29T03:01:38.467Z,14.49
2022-10-29T03:03:39.968Z,14.47
2022-10-29T03:05:45.125Z,14.44
2022-10-29T03:07:48.034Z,14.40
2022-10-29T03:09:49.583Z,14.38
2022-10-29T03:11:51.022Z,14.36
2022-10-29T03:13:52.470Z,14.33
2022-10-29T03:15:54.096Z,14.28
2022-10-29T03:17:56.032Z,14.22
2022-10-29T03:19:57.611Z,14.20
2022-10-29T03:21:59.052Z,14.16
2022-10-29T03:24:00.686Z,14.14
2022-10-29T03:26:02.270Z,14.09
2022-10-29T03:28:03.805Z,14.05
2022-10-29T03:30:05.850Z,13.99
2022-10-29T03:32:07.361Z,13.97
2022-10-29T03:34:08.785Z,13.92
2022-10-29T03:36:10.381Z,13.86
2022-10-29T03:38:11.924Z,13.82
2022-10-29T03:40:13.452Z,13.81
2022-10-29T03:42:14.876Z,13.79
2022-10-29T03:44:16.318Z,13.79
2022-10-29T03:46:17.780Z,13.75
2022-10-29T03:48:19.685Z,13.70
2022-10-29T03:50:21.172Z,13.67
2022-10-29T03:52:22.635Z,13.64
2022-10-29T03:54:24.141Z,13.60
2022-10-29T03:56:25.579Z,13.57
2022-10-29T03:58:27.696Z,13.56
2022-10-29T04:00:29.160Z,13.51
2022-10-29T04:02:30.906Z,13.49
2022-10-29T04:04:32.472Z,13.46
2022-10-29T04:06:33.953Z,13.44
2022-10-29T04:08:35.428Z,13.41
2022-10-29T04:10:36.859Z,13.37
2022-10-29T04:12:38.290Z,13.35
2022-10-29T04:14:44.477Z,13.33
2022-10-29T04:16:47.104Z,13.29
2022-10-29T04:18:49.670Z,13.27
2022-10-29T04:27:07.989Z,13.19
2022-10-29T04:30:17.702Z,13.07
2022-10-29T04:32:19.131Z,13.03
2022-10-29T04:34:20.802Z,13.00
2022-10-29T04:36:22.258Z,12.97
2022-10-29T04:38:23.755Z,12.97
2022-10-29T04:40:25.733Z,12.94
2022-10-29T04:42:27.154Z,12.92
2022-10-29T04:44:28.644Z,12.90
2022-10-29T04:46:30.100Z,12.86
2022-10-29T04:48:31.520Z,12.83
2022-10-29T04:50:34.299Z,12.78
2022-10-29T04:52:35.763Z,12.74
2022-10-29T04:54:37.194Z,12.72
2022-10-29T04:56:38.621Z,12.72
2022-10-29T04:58:40.053Z,12.71
2022-10-29T05:00:43.586Z,12.68
2022-10-29T05:02:49.842Z,12.66
2022-10-29T05:04:51.295Z,12.63
2022-10-29T05:06:52.734Z,12.62
2022-10-29T05:08:54.195Z,12.58
2022-10-29T05:10:55.690Z,12.53
2022-10-29T05:13:01.883Z,12.49
2022-10-29T05:15:04.422Z,12.46
2022-10-29T05:19:12.200Z,12.42
2022-10-29T05:21:13.920Z,12.42
2022-10-29T05:23:15.416Z,12.40
2022-10-29T05:25:17.036Z,12.37
2022-10-29T05:27:18.495Z,12.32
2022-10-29T05:29:19.940Z,12.30
2022-10-29T05:31:21.428Z,12.30
2022-10-29T05:33:24.673Z,12.31
2022-10-29T05:35:26.580Z,12.30
2022-10-29T05:37:28.003Z,12.30
2022-10-29T05:39:29.461Z,12.29
2022-10-29T05:41:30.896Z,12.27
2022-10-29T05:43:32.363Z,12.24
2022-10-29T05:45:34.616Z,12.19
2022-10-29T05:47:36.127Z,12.16
2022-10-29T05:49:37.581Z,12.14
2022-10-29T05:51:39.037Z,12.13
2022-10-29T05:53:40.443Z,12.13
2022-10-29T05:55:42.539Z,12.11
2022-10-29T05:57:43.968Z,12.10
2022-10-29T05:59:45.433Z,12.08
2022-10-29T06:01:47.021Z,12.06
2022-10-29T06:03:48.688Z,12.05
2022-10-29T06:05:50.552Z,12.01
2022-10-29T06:07:57.339Z,11.99
2022-10-29T06:09:58.975Z,11.95
2022-10-29T06:12:00.421Z,11.99
2022-10-29T06:14:01.840Z,11.98
2022-10-29T06:16:03.383Z,12.00
2022-10-29T06:18:05.062Z,12.00
2022-10-29T06:20:07.720Z,12.01
2022-10-29T06:22:09.241Z,12.02
2022-10-29T06:24:10.814Z,12.02
2022-10-29T06:26:12.240Z,12.02
2022-10-29T06:28:15.384Z,12.02
2022-10-29T06:30:17.041Z,12.03
2022-10-29T06:32:18.481Z,12.02
2022-10-29T06:34:19.951Z,12.02
2022-10-29T06:36:21.495Z,12.01
2022-10-29T06:38:22.916Z,11.98
2022-10-29T06:40:24.478Z,11.97
2022-10-29T06:42:25.936Z,11.95
2022-10-29T06:44:27.395Z,11.94
2022-10-29T06:46:28.830Z,11.94
2022-10-29T06:48:30.318Z,11.99
2022-10-29T06:50:32.385Z,12.02
2022-10-29T06:52:34.439Z,12.04
2022-10-29T06:54:35.901Z,12.05
2022-10-29T06:56:37.412Z,12.07
2022-10-29T06:58:38.874Z,12.10
2022-10-29T07:00:41.654Z,12.13
2022-10-29T07:02:46.209Z,12.14
2022-10-29T07:04:47.805Z,12.18
2022-10-29T07:06:49.248Z,12.21
2022-10-29T07:08:50.729Z,12.23
2022-10-29T07:10:53.553Z,12.25
2022-10-29T07:12:55.230Z,12.29
2022-10-29T07:14:56.719Z,12.29
2022-10-29T07:16:58.134Z,12.31
2022-10-29T07:18:59.647Z,12.34
2022-10-29T07:21:03.740Z,12.36
2022-10-29T07:23:05.899Z,12.37
2022-10-29T07:25:07.809Z,12.40
2022-10-29T07:27:09.409Z,12.44
2022-10-29T07:29:11.016Z,12.49
2022-10-29T07:31:12.466Z,12.56
2022-10-29T07:33:14.768Z,12.61
2022-10-29T07:35:16.339Z,12.66
2022-10-29T07:37:17.773Z,12.73
2022-10-29T07:39:19.297Z,12.77
2022-10-29T07:41:20.730Z,12.82
2022-10-29T07:43:22.759Z,12.86
2022-10-29T07:45:24.725Z,12.86
2022-10-29T07:47:26.135Z,12.90
2022-10-29T07:49:27.606Z,12.97
2022-10-29T07:51:29.063Z,13.03
2022-10-29T07:53:33.317Z,13.08
2022-10-29T07:55:35.421Z,13.11
2022-10-29T07:57:36.914Z,13.12
2022-10-29T07:59:38.334Z,13.14
2022-10-29T08:01:40.277Z,13.16
2022-10-29T08:03:41.774Z,13.22
2022-10-29T08:05:43.768Z,13.29
2022-10-29T08:07:45.237Z,13.35
2022-10-29T08:09:46.695Z,13.43
2022-10-29T08:13:54.554Z,13.55
2022-10-29T08:15:56.433Z,13.62
2022-10-29T08:17:58.400Z,13.66
2022-10-29T08:19:59.837Z,13.70
2022-10-29T08:22:01.363Z,13.69
2022-10-29T08:24:02.889Z,13.72
2022-10-29T08:26:04.378Z,13.74
2022-10-29T08:28:05.889Z,13.72
2022-10-29T08:30:09.172Z,13.73
2022-10-29T08:32:10.633Z,13.75
2022-10-29T08:34:12.141Z,13.81
2022-10-29T08:36:13.648Z,13.85
2022-10-29T08:38:15.325Z,13.90
2022-10-29T08:40:39.548Z,13.95
2022-10-29T08:42:55.186Z,14.00
2022-10-29T08:44:59.559Z,14.03
2022-10-29T08:47:21.190Z,14.06
2022-10-29T08:49:25.626Z,14.10
2022-10-29T08:51:38.742Z,14.13
2022-10-29T08:53:54.315Z,14.13
2022-10-29T08:56:16.070Z,14.20
2022-10-29T08:58:27.947Z,14.24
2022-10-29T09:00:35.278Z,14.26
2022-10-29T09:02:36.767Z,14.29
2022-10-29T09:04:38.349Z,14.35
2022-10-29T09:07:06.877Z,14.43
2022-10-29T09:09:31.473Z,14.50
2022-10-29T09:11:44.844Z,14.58
2022-10-29T09:13:49.213Z,14.65
2022-10-29T09:16:12.475Z,14.69
2022-10-29T09:18:13.882Z,14.80
2022-10-29T09:20:51.008Z,14.88
2022-10-29T09:23:18.721Z,14.91
2022-10-29T09:25:52.426Z,14.96
2022-10-29T09:28:06.513Z,14.99
2022-10-29T09:30:20.869Z,15.06
2022-10-29T09:32:27.161Z,15.14
2022-10-29T09:34:43.676Z,15.17
2022-10-29T09:36:47.251Z,15.22
2022-10-29T09:38:59.946Z,15.23
2022-10-29T09:41:03.817Z,15.30
2022-10-29T09:43:15.493Z,15.34
2022-10-29T09:45:22.420Z,15.43
2022-10-29T09:47:32.897Z,15.52
2022-10-29T09:50:09.787Z,15.60
2022-10-29T09:52:20.838Z,15.68
2022-10-29T09:54:25.357Z,15.69
2022-10-29T09:56:26.870Z,15.77
2022-10-29T09:58:28.650Z,15.87
2022-10-29T10:00:31.626Z,15.99
2022-10-29T10:02:55.396Z,16.13
2022-10-29T10:05:04.764Z,16.24
2022-10-29T10:07:09.180Z,16.32
2022-10-29T10:09:10.641Z,16.40
2022-10-29T10:11:19.922Z,16.50
2022-10-29T10:13:29.047Z,16.59
2022-10-29T10:15:33.799Z,16.60
2022-10-29T10:17:55.904Z,16.62
2022-10-29T10:19:57.721Z,16.66
2022-10-29T10:22:01.436Z,16.69
2022-10-29T10:24:02.887Z,16.70
2022-10-29T10:26:05.551Z,16.73
2022-10-29T10:28:18.007Z,16.79
2022-10-29T10:30:22.887Z,16.84
2022-10-29T10:32:25.688Z,16.87
2022-10-29T10:34:37.959Z,16.93
2022-10-29T10:36:43.116Z,17.05
2022-10-29T10:38:50.882Z,17.14
2022-10-29T10:41:05.381Z,17.26
2022-10-29T10:43:08.907Z,17.34
2022-10-29T10:45:25.548Z,17.42
2022-10-29T10:47:30.839Z,17.45
2022-10-29T10:49:36.404Z,17.42
2022-10-29T10:51:42.605Z,17.45
2022-10-29T10:53:44.334Z,17.54
2022-10-29T10:55:50.991Z,17.69
2022-10-29T10:58:12.396Z,17.98
2022-10-29T11:00:18.785Z,18.38
2022-10-29T11:02:37.840Z,18.52
2022-10-29T11:04:41.267Z,18.57
2022-10-29T11:06:47.930Z,18.83
2022-10-29T11:09:07.196Z,19.27
2022-10-29T11:11:15.832Z,19.40
2022-10-29T11:13:20.741Z,19.35
2022-10-29T11:15:36.097Z,19.13
2022-10-29T11:17:53.878Z,19.07
2022-10-29T11:20:03.271Z,19.05
2022-10-29T11:22:16.591Z,19.04
2022-10-29T11:25:15.699Z,19.03
2022-10-29T11:27:26.085Z,19.00
2022-10-29T11:29:57.291Z,18.87
2022-10-29T11:32:10.159Z,18.82
2022-10-29T11:34:21.236Z,18.85
2022-10-29T11:36:24.122Z,18.85
2022-10-29T11:38:34.074Z,18.84
2022-10-29T11:40:35.532Z,18.83
2022-10-29T11:42:39.246Z,18.83
2022-10-29T11:44:41.552Z,18.83
2022-10-29T11:46:49.107Z,18.82
2022-10-29T11:49:29.357Z,18.79
2022-10-29T11:51:39.485Z,18.79
2022-10-29T11:54:06.206Z,18.83
2022-10-29T11:56:18.721Z,18.88
2022-10-29T11:58:34.233Z,18.90
2022-10-29T12:01:05.930Z,18.94
2022-10-29T12:03:46.986Z,18.96
2022-10-29T12:06:09.940Z,19.00
2022-10-29T12:08:48.491Z,19.05
2022-10-29T12:11:31.462Z,19.05
2022-10-29T12:13:37.875Z,19.03
2022-10-29T12:15:41.964Z,19.06
2022-10-29T12:18:06.183Z,19.08
2022-10-29T12:20:23.492Z,19.13
2022-10-29T12:22:33.729Z,19.20
2022-10-29T12:24:58.737Z,19.26
2022-10-29T12:27:14.501Z,19.27
2022-10-29T12:29:33.861Z,19.28
2022-10-29T12:31:51.809Z,19.32
2022-10-29T12:34:11.322Z,19.33
2022-10-29T12:36:31.471Z,19.37
2022-10-29T12:38:48.814Z,19.44
2022-10-29T12:40:58.802Z,19.48
2022-10-29T12:43:11.058Z,19.51
2022-10-29T12:46:19.020Z,19.55
2022-10-29T12:48:37.059Z,19.54
2022-10-29T12:50:58.144Z,19.53
2022-10-29T12:53:14.780Z,19.50
2022-10-29T12:55:17.597Z,19.52
2022-10-29T12:57:28.736Z,19.54
2022-10-29T12:59:35.057Z,19.56
2022-10-29T13:02:05.798Z,19.57
2022-10-29T13:04:02.343Z,19.61
2022-10-29T13:06:41.790Z,19.64
2022-10-29T13:08:56.083Z,19.75
2022-10-29T13:10:57.652Z,19.95
2022-10-29T13:12:59.026Z,20.16
2022-10-29T13:15:09.124Z,20.27
2022-10-29T13:17:25.850Z,20.27
2022-10-29T13:19:59.448Z,20.18
2022-10-29T13:22:25.088Z,20.11
2022-10-29T13:24:28.310Z,20.02
2022-10-29T13:26:53.728Z,19.95
2022-10-29T13:28:55.244Z,19.93
2022-10-29T13:30:59.452Z,19.89
2022-10-29T13:33:01.231Z,19.88
2022-10-29T13:35:24.668Z,19.89
2022-10-29T13:37:38.039Z,19.90
2022-10-29T13:39:39.452Z,19.92
2022-10-29T13:41:50.106Z,19.99
2022-10-29T13:43:54.354Z,20.04
2022-10-29T13:46:13.957Z,20.03
2022-10-29T13:48:30.610Z,20.05
2022-10-29T13:50:34.672Z,20.03
2022-10-29T13:52:37.379Z,20.02
2022-10-29T13:54:56.338Z,20.03
2022-10-29T13:57:08.159Z,20.01
2022-10-29T13:59:19.549Z,19.96
2022-10-29T14:01:22.918Z,19.93
2022-10-29T14:03:35.770Z,19.90
2022-10-29T14:05:46.588Z,19.88
2022-10-29T14:08:15.347Z,19.90
2022-10-29T14:10:35.536Z,19.92
2022-10-29T14:12:38.288Z,19.93
2022-10-29T14:14:51.609Z,19.88
2022-10-29T14:17:15.659Z,19.84
2022-10-29T14:19:21.652Z,19.84
2022-10-29T14:21:25.792Z,19.82
2022-10-29T14:23:29.653Z,19.83
2022-10-29T14:25:34.510Z,19.86
2022-10-29T14:27:35.961Z,19.84
2022-10-29T14:29:38.374Z,19.85
2022-10-29T14:31:40.158Z,19.85
2022-10-29T14:33:43.552Z,19.86
2022-10-29T14:35:46.106Z,19.85
2022-10-29T14:37:48.786Z,19.85
2022-10-29T14:40:00.791Z,19.86
2022-10-29T14:42:02.657Z,19.86
2022-10-29T14:44:09.575Z,19.88
2022-10-29T14:46:19.245Z,19.88
2022-10-29T14:48:20.924Z,19.87
2022-10-29T14:50:25.405Z,19.89
2022-10-29T14:52:34.073Z,19.92
2022-10-29T14:54:39.830Z,19.89
2022-10-29T14:56:41.716Z,19.86
2022-10-29T14:58:43.208Z,19.85
2022-10-29T15:00:54.357Z,19.86
2022-10-29T15:02:57.174Z,19.86
2022-10-29T15:05:04.427Z,19.86
2022-10-29T15:07:16.023Z,19.79
2022-10-29T15:09:26.847Z,19.82
2022-10-29T15:11:33.017Z,19.82
2022-10-29T15:13:34.966Z,19.81
2022-10-29T15:15:36.999Z,19.77
2022-10-29T15:17:49.702Z,19.77
2022-10-29T15:19:58.268Z,19.75
2022-10-29T15:21:59.591Z,19.64
2022-10-29T15:24:07.803Z,19.65
2022-10-29T15:26:14.775Z,19.60
2022-10-29T15:28:29.169Z,19.53
2022-10-29T15:30:36.235Z,19.51
2022-10-29T15:32:37.755Z,19.49
2022-10-29T15:34:40.398Z,19.44
2022-10-29T15:36:53.106Z,19.39
2022-10-29T15:39:26.631Z,19.32
2022-10-29T15:41:37.461Z,19.28
2022-10-29T15:43:56.118Z,19.23
2022-10-29T15:45:58.179Z,19.18
2022-10-29T15:48:05.676Z,19.17
2022-10-29T15:50:10.998Z,19.12
2022-10-29T15:52:17.671Z,19.10
2022-10-29T15:54:19.297Z,19.06
2022-10-29T15:56:20.776Z,19.02
2022-10-29T15:58:23.278Z,18.98
2022-10-29T16:00:24.919Z,18.97
2022-10-29T16:02:26.551Z,18.92
2022-10-29T16:04:28.059Z,18.87
2022-10-29T16:06:30.315Z,18.81
2022-10-29T16:08:44.375Z,18.74
2022-10-29T16:10:45.940Z,18.72
2022-10-29T16:12:49.598Z,18.70
2022-10-29T16:14:51.039Z,18.64
2022-10-29T16:16:52.453Z,18.63
2022-10-29T16:18:54.490Z,18.60
2022-10-29T16:21:01.719Z,18.57
2022-10-29T16:23:03.373Z,18.51
2022-10-29T16:25:05.283Z,18.47
2022-10-29T16:27:14.817Z,18.45
2022-10-29T16:29:16.278Z,18.42
2022-10-29T16:31:23.911Z,18.40
2022-10-29T16:33:26.076Z,18.33
2022-10-29T16:35:29.875Z,18.29
2022-10-29T16:37:31.422Z,18.22
2022-10-29T16:39:32.853Z,18.23
2022-10-29T16:41:35.082Z,18.22
2022-10-29T16:43:36.503Z,18.20
2022-10-29T16:45:38.087Z,18.17
2022-10-29T16:47:39.649Z,18.15
2022-10-29T16:49:41.068Z,18.12
2022-10-29T16:51:42.713Z,18.09
2022-10-29T16:53:44.128Z,18.07
2022-10-29T16:55:45.590Z,18.04
2022-10-29T16:57:47.133Z,18.02
2022-10-29T16:59:48.670Z,18.00
2022-10-29T17:01:50.138Z,17.97
2022-10-29T17:03:52.268Z,17.94
2022-10-29T17:05:53.748Z,17.90
2022-10-29T17:07:55.845Z,17.87
2022-10-29T17:09:57.369Z,17.85
2022-10-29T17:11:58.886Z,17.83
2022-10-29T17:14:00.363Z,17.81
2022-10-29T17:16:14.670Z,17.77
2022-10-29T17:18:16.131Z,17.74
2022-10-29T17:20:17.761Z,17.71
2022-10-29T17:22:19.358Z,17.67
2022-10-29T17:24:20.801Z,17.64
2022-10-29T17:26:22.305Z,17.57
2022-10-29T17:28:25.527Z,17.54
2022-10-29T17:30:26.986Z,17.51
2022-10-29T17:32:32.490Z,17.49
2022-10-29T17:34:34.261Z,17.46
2022-10-29T17:36:40.816Z,17.44
2022-10-29T17:38:42.294Z,17.42
2022-10-29T17:40:46.062Z,17.40
2022-10-29T17:42:47.507Z,17.38
2022-10-29T17:44:48.934Z,17.35
2022-10-29T17:46:50.439Z,17.33
2022-10-29T17:48:56.244Z,17.31
2022-10-29T17:50:59.980Z,17.29
2022-10-29T17:53:01.697Z,17.26
2022-10-29T17:55:03.251Z,17.25
2022-10-29T17:57:04.711Z,17.23
2022-10-29T17:59:06.136Z,17.21
2022-10-29T18:01:10.495Z,17.21
2022-10-29T18:03:12.316Z,17.18
2022-10-29T18:05:13.851Z,17.17
2022-10-29T18:07:15.292Z,17.17
2022-10-29T18:09:20.280Z,17.15
2022-10-29T18:11:24.465Z,17.14
2022-10-29T18:13:25.871Z,17.13
2022-10-29T18:15:27.669Z,17.12
2022-10-29T18:17:29.204Z,17.09
2022-10-29T18:19:30.623Z,17.07
2022-10-29T18:21:32.626Z,17.05
2022-10-29T18:23:34.198Z,17.03
2022-10-29T18:25:35.643Z,17.01
2022-10-29T18:27:37.350Z,16.99
2022-10-29T18:29:38.765Z,16.97
2022-10-29T18:31:44.794Z,16.94
2022-10-29T18:33:46.941Z,16.92
2022-10-29T18:35:48.510Z,16.90
2022-10-29T18:37:49.959Z,16.88
2022-10-29T18:39:52.762Z,16.86
2022-10-29T18:41:54.284Z,16.83
2022-10-29T18:43:56.146Z,16.80
2022-10-29T18:45:59.239Z,16.77
2022-10-29T18:48:01.194Z,16.71
2022-10-29T18:50:03.053Z,16.68
2022-10-29T18:52:04.600Z,16.67
2022-10-29T18:54:06.126Z,16.63
2022-10-29T18:56:13.322Z,16.61
2022-10-29T18:58:14.756Z,16.59
2022-10-29T19:00:16.817Z,16.59
2022-10-29T19:02:18.380Z,16.57
2022-10-29T19:04:19.899Z,16.54
2022-10-29T19:06:23.003Z,16.52
2022-10-29T19:08:24.452Z,16.48
2022-10-29T19:10:25.887Z,16.46
2022-10-29T19:12:27.322Z,16.44
2022-10-29T19:14:28.799Z,16.42
2022-10-29T19:16:31.860Z,16.37
2022-10-29T19:18:34.175Z,16.34
2022-10-29T19:20:36.185Z,16.32
2022-10-29T19:22:37.602Z,16.29
2022-10-29T19:24:39.112Z,16.27
2022-10-29T19:26:41.269Z,16.26
2022-10-29T19:28:44.073Z,16.23
2022-10-29T19:30:45.584Z,16.17
2022-10-29T19:32:47.114Z,16.14
2022-10-29T19:34:48.586Z,16.12
2022-10-29T19:36:50.052Z,16.09
2022-10-29T19:38:51.660Z,16.07
2022-10-29T19:40:55.956Z,16.04
2022-10-29T19:42:57.392Z,16.03
2022-10-29T19:44:58.822Z,16.01
2022-10-29T19:47:00.322Z,15.98
2022-10-29T19:49:01.773Z,15.94
2022-10-29T19:51:03.459Z,15.94
2022-10-29T19:53:05.587Z,15.92
2022-10-29T19:55:07.769Z,15.90
2022-10-29T19:57:09.241Z,15.89
2022-10-29T19:59:10.732Z,15.87
2022-10-29T20:01:15.947Z,15.86
2022-10-29T20:03:18.770Z,15.82
2022-10-29T20:05:21.037Z,15.81
2022-10-29T20:07:22.541Z,15.78
2022-10-29T20:09:24.110Z,15.76
2022-10-29T20:11:25.588Z,15.75
2022-10-29T20:13:27.681Z,15.73
2022-10-29T20:15:29.486Z,15.72
2022-10-29T20:17:31.484Z,15.70
2022-10-29T20:19:32.948Z,15.67
2022-10-29T20:21:34.409Z,15.66
2022-10-29T20:23:36.218Z,15.64
2022-10-29T20:25:37.947Z,15.61
2022-10-29T20:27:39.523Z,15.59
2022-10-29T20:29:41.099Z,15.56
2022-10-29T20:31:42.516Z,15.52
2022-10-29T20:33:57.894Z,15.50
2022-10-29T20:35:59.368Z,15.49
2022-10-29T20:38:01.143Z,15.47
2022-10-29T20:40:02.956Z,15.44
2022-10-29T20:42:04.422Z,15.40
2022-10-29T20:44:05.882Z,15.40
2022-10-29T20:46:07.308Z,15.38
2022-10-29T20:48:08.747Z,15.37
2022-10-29T20:50:10.210Z,15.34
2022-10-29T20:52:11.685Z,15.33
2022-10-29T20:54:13.129Z,15.32
2022-10-29T20:56:16.347Z,15.30
2022-10-29T20:58:20.048Z,15.30
2022-10-29T21:00:21.685Z,15.28
2022-10-29T21:02:23.297Z,15.27
2022-10-29T21:04:24.849Z,15.25
2022-10-29T21:06:26.624Z,15.24
2022-10-29T21:10:35.158Z,15.18
2022-10-29T21:12:36.613Z,15.17
2022-10-29T21:14:38.064Z,15.16
2022-10-29T21:16:39.663Z,15.16
2022-10-29T21:18:42.479Z,15.15
2022-10-29T21:20:43.928Z,15.14
2022-10-29T21:22:45.349Z,15.13
2022-10-29T21:24:46.798Z,15.10
2022-10-29T21:26:48.203Z,15.09
2022-10-29T21:28:51.179Z,15.08
2022-10-29T21:30:53.253Z,15.07
2022-10-29T21:32:55.278Z,15.06
2022-10-29T21:34:56.699Z,15.05
2022-10-29T21:36:58.178Z,15.04
2022-10-29T21:38:59.661Z,15.04
2022-10-29T21:41:04.288Z,15.03
2022-10-29T21:43:05.817Z,15.01
2022-10-29T21:45:07.493Z,15.02
2022-10-29T21:47:09.022Z,15.00
2022-10-29T21:49:10.440Z,14.98
2022-10-29T21:51:14.053Z,14.98
2022-10-29T21:55:22.129Z,14.96
2022-10-29T21:57:23.566Z,14.93
2022-10-29T21:59:25.026Z,14.94
2022-10-29T22:01:26.621Z,14.92
2022-10-29T22:03:30.505Z,14.91
2022-10-29T22:05:32.002Z,14.90
2022-10-29T22:07:34.652Z,14.90
2022-10-29T22:09:36.098Z,14.89
2022-10-29T22:11:37.581Z,14.88
2022-10-29T22:13:39.379Z,14.86
2022-10-29T22:15:40.824Z,14.87
2022-10-29T22:17:42.256Z,14.85
2022-10-29T22:19:43.718Z,14.83
2022-10-29T22:21:46.229Z,14.82
2022-10-29T22:23:50.804Z,14.81
2022-10-29T22:25:52.270Z,14.79
2022-10-29T22:27:53.859Z,14.77
2022-10-29T22:29:55.302Z,14.74
2022-10-29T22:31:56.870Z,14.69
2022-10-29T22:33:58.296Z,14.68
2022-10-29T22:36:10.044Z,14.65
2022-10-29T22:38:11.461Z,14.63
2022-10-29T22:40:12.931Z,14.61
2022-10-29T22:42:14.383Z,14.60
2022-10-29T22:44:15.878Z,14.61
2022-10-29T22:46:19.137Z,14.58
2022-10-29T22:48:20.591Z,14.58
2022-10-29T22:50:22.156Z,14.57
2022-10-29T22:52:23.597Z,14.56
2022-10-29T22:54:25.069Z,14.54
2022-10-29T22:56:29.076Z,14.52
2022-10-29T22:58:31.221Z,14.48
2022-10-29T23:00:32.663Z,14.48
2022-10-29T23:02:34.138Z,14.45
2022-10-29T23:04:35.698Z,14.44
2022-10-29T23:06:37.138Z,14.43
2022-10-29T23:08:38.769Z,14.42
2022-10-29T23:10:40.240Z,14.42
2022-10-29T23:12:41.646Z,14.40
2022-10-29T23:14:43.110Z,14.38
2022-10-29T23:16:44.530Z,14.36
2022-10-29T23:18:50.414Z,14.36
2022-10-29T23:21:01.737Z,14.33
2022-10-29T23:23:03.185Z,14.31
2022-10-29T23:25:04.958Z,14.31
2022-10-29T23:27:06.398Z,14.30
2022-10-29T23:29:07.821Z,14.29
2022-10-29T23:31:15.506Z,14.28
2022-10-29T23:33:16.938Z,14.24
2022-10-29T23:35:18.415Z,14.24
2022-10-29T23:37:19.841Z,14.23
2022-10-29T23:39:21.252Z,14.21
2022-10-29T23:41:22.820Z,14.18
2022-10-29T23:43:24.546Z,14.17
2022-10-29T23:45:25.985Z,14.17
2022-10-29T23:47:27.411Z,14.16
2022-10-29T23:49:28.840Z,14.15
2022-10-29T23:51:30.373Z,14.17
2022-10-29T23:53:31.881Z,14.17
2022-10-29T23:55:34.128Z,14.16
2022-10-29T23:57:35.613Z,14.17
2022-10-29T23:59:37.044Z,14.15
